Terminal Aerodrome Forecast
Issued by NWS Bismarck, ND

Home | Current Version | Previous Version | Text Only | Print | Product List | Glossary On
Versions: 1 2 3 4 5 6 7 8 9 10 11 12 13 14 15 16 17
000
FTUS43 KBIS 222335
TAFBIS
TAF
KBIS 222335Z 2300/2324 26013KT P6SM VCSH BKN090 WS020/28040KT
     FM230800 30017G26KT P6SM VCSH SCT200 WS020/31045KT
     FM231200 31025G35KT P6SM VCSH BKN080=

USA.gov is the U.S. government's official web portal to all federal, state and local government web resources and services.